createdAt,value
2019-03-22T00:00:18.395Z,38.13
2019-03-22T00:02:49.184Z,35.57
2019-03-22T00:05:19.870Z,36.20
2019-03-22T00:07:51.428Z,35.70
2019-03-22T00:10:22.122Z,34.20
2019-03-22T00:12:53.156Z,37.30
2019-03-22T00:15:24.091Z,34.63
2019-03-22T00:17:54.784Z,33.67
2019-03-22T00:20:25.443Z,34.77
2019-03-22T00:22:56.181Z,34.60
2019-03-22T00:25:26.865Z,35.20
2019-03-22T00:27:58.158Z,34.63
2019-03-22T00:30:29.385Z,36.47
2019-03-22T00:33:00.112Z,38.73
2019-03-22T00:35:31.084Z,37.60
2019-03-22T00:38:02.069Z,39.30
2019-03-22T00:40:32.831Z,38.40
2019-03-22T00:43:04.128Z,34.90
2019-03-22T00:45:34.813Z,36.07
2019-03-22T00:48:05.837Z,34.97
2019-03-22T00:50:36.813Z,32.27
2019-03-22T00:53:07.772Z,37.20
2019-03-22T00:55:38.487Z,32.00
2019-03-22T00:58:09.527Z,32.27
2019-03-22T01:00:40.609Z,30.03
2019-03-22T01:03:11.328Z,36.20
2019-03-22T01:05:42.179Z,34.70
2019-03-22T01:08:13.168Z,33.30
2019-03-22T01:10:44.224Z,32.40
2019-03-22T01:13:15.099Z,31.87
2019-03-22T01:15:45.767Z,35.17
2019-03-22T01:18:16.551Z,32.00
2019-03-22T01:20:47.239Z,30.13
2019-03-22T01:23:17.968Z,29.80
2019-03-22T01:25:48.655Z,29.30
2019-03-22T01:28:19.337Z,31.07
2019-03-22T01:30:50.433Z,29.30
2019-03-22T01:33:21.142Z,30.27
2019-03-22T01:35:51.824Z,32.40
2019-03-22T01:38:22.542Z,33.00
2019-03-22T01:40:53.267Z,31.20
2019-03-22T01:43:24.050Z,30.53
2019-03-22T01:45:54.764Z,29.63
2019-03-22T01:48:25.416Z,29.27
2019-03-22T01:50:56.351Z,31.53
2019-03-22T01:53:27.079Z,32.30
2019-03-22T01:55:58.081Z,29.47
2019-03-22T01:58:28.820Z,29.17
2019-03-22T02:00:59.514Z,29.03
2019-03-22T02:03:30.238Z,30.13
2019-03-22T02:06:00.945Z,30.70
2019-03-22T02:08:31.638Z,30.90
2019-03-22T02:11:02.359Z,32.50
2019-03-22T02:13:33.034Z,33.73
2019-03-22T02:16:04.160Z,33.87
2019-03-22T02:18:34.821Z,33.80
2019-03-22T02:21:05.785Z,35.10
2019-03-22T02:23:36.479Z,32.70
2019-03-22T02:26:07.323Z,35.00
2019-03-22T02:28:38.011Z,33.43
2019-03-22T02:31:08.747Z,35.53
2019-03-22T02:33:39.435Z,36.10
2019-03-22T02:36:10.148Z,32.37
2019-03-22T02:38:40.877Z,31.80
2019-03-22T02:41:11.543Z,30.40
2019-03-22T02:43:42.255Z,31.90
2019-03-22T02:46:12.920Z,33.07
2019-03-22T02:48:44.146Z,32.87
2019-03-22T02:51:15.054Z,34.47
2019-03-22T02:53:45.759Z,34.27
2019-03-22T02:56:16.486Z,31.70
2019-03-22T02:58:47.751Z,31.40
2019-03-22T03:01:18.502Z,31.07
2019-03-22T03:03:49.158Z,29.37
2019-03-22T03:06:19.836Z,31.10
2019-03-22T03:08:50.898Z,27.50
2019-03-22T03:11:21.552Z,31.30
2019-03-22T03:13:52.484Z,31.17
2019-03-22T03:16:23.219Z,35.43
2019-03-22T03:18:54.247Z,33.70
2019-03-22T03:21:24.920Z,37.90
2019-03-22T03:23:55.667Z,36.90
2019-03-22T03:26:26.349Z,37.87
2019-03-22T03:28:57.413Z,36.03
2019-03-22T03:31:28.109Z,42.70
2019-03-22T03:33:58.867Z,35.73
2019-03-22T03:36:29.548Z,39.47
2019-03-22T03:39:00.240Z,38.80
2019-03-22T03:41:30.907Z,38.40
2019-03-22T03:44:01.686Z,32.07
2019-03-22T03:46:32.335Z,28.67
2019-03-22T03:49:03.032Z,30.10
2019-03-22T03:51:39.788Z,27.53
2019-03-22T03:54:10.522Z,29.07
2019-03-22T03:56:41.239Z,30.40
2019-03-22T03:59:12.373Z,30.87
2019-03-22T04:01:43.078Z,30.00
2019-03-22T04:04:13.736Z,34.60
2019-03-22T04:06:44.463Z,34.00
2019-03-22T04:09:15.145Z,33.90
2019-03-22T04:11:45.841Z,36.10
2019-03-22T04:14:16.950Z,36.93
2019-03-22T04:16:47.688Z,36.67
2019-03-22T04:19:19.087Z,36.73
2019-03-22T04:21:49.761Z,36.90
2019-03-22T04:24:20.478Z,39.77
2019-03-22T04:26:51.159Z,38.97
2019-03-22T04:29:22.168Z,35.83
2019-03-22T04:31:52.878Z,36.17
2019-03-22T04:34:23.897Z,35.53
2019-03-22T04:36:54.612Z,34.33
2019-03-22T04:39:25.628Z,31.17
2019-03-22T04:41:56.345Z,31.77
2019-03-22T04:44:27.491Z,36.97
2019-03-22T04:46:58.324Z,35.57
2019-03-22T04:49:29.960Z,38.07
2019-03-22T04:52:00.839Z,40.07
2019-03-22T04:54:34.728Z,34.53
2019-03-22T04:57:07.758Z,36.20
2019-03-22T04:59:39.863Z,37.90
2019-03-22T05:02:11.763Z,34.43
2019-03-22T05:04:45.277Z,34.00
2019-03-22T05:07:16.393Z,34.70
2019-03-22T05:09:47.945Z,38.60
2019-03-22T05:12:21.473Z,40.63
2019-03-22T05:14:53.462Z,37.13
2019-03-22T05:17:25.385Z,39.23
2019-03-22T05:19:59.118Z,39.57
2019-03-22T05:22:31.736Z,44.23
2019-03-22T05:25:04.819Z,47.07
2019-03-22T05:27:37.452Z,46.53
2019-03-22T05:30:11.536Z,40.73
2019-03-22T05:32:42.574Z,42.57
2019-03-22T05:35:13.624Z,39.70
2019-03-22T05:37:44.606Z,40.70
2019-03-22T05:40:15.304Z,42.23
2019-03-22T05:42:45.970Z,38.50
2019-03-22T05:45:16.893Z,40.20
2019-03-22T05:47:47.894Z,37.23
2019-03-22T05:50:19.127Z,45.27
2019-03-22T05:52:49.765Z,45.37
2019-03-22T05:55:20.453Z,42.40
2019-03-22T05:57:51.147Z,42.37
2019-03-22T06:00:22.428Z,44.07
2019-03-22T06:02:53.173Z,44.60
2019-03-22T06:05:23.898Z,45.20
2019-03-22T06:07:54.573Z,41.00
2019-03-22T06:10:25.229Z,45.43
2019-03-22T06:12:55.910Z,37.87
2019-03-22T06:15:26.609Z,37.13
2019-03-22T06:17:57.591Z,38.50
2019-03-22T06:20:28.251Z,37.90
2019-03-22T06:22:58.919Z,37.00
2019-03-22T06:25:29.632Z,37.10
2019-03-22T06:28:00.715Z,38.17
2019-03-22T06:30:31.385Z,35.20
2019-03-22T06:33:02.246Z,32.97
2019-03-22T06:35:33.256Z,34.60
2019-03-22T06:38:04.040Z,35.90
2019-03-22T06:40:34.694Z,38.07
2019-03-22T06:43:05.673Z,37.87
2019-03-22T06:45:36.717Z,39.13
2019-03-22T06:48:07.779Z,39.10
2019-03-22T06:50:38.772Z,41.37
2019-03-22T06:53:09.463Z,37.93
2019-03-22T06:55:40.966Z,38.20
2019-03-22T06:58:11.856Z,38.00
2019-03-22T07:00:42.846Z,37.37
2019-03-22T07:03:13.598Z,41.30
2019-03-22T07:05:44.723Z,37.63
2019-03-22T07:08:15.645Z,39.20
2019-03-22T07:10:46.266Z,38.40
2019-03-22T07:13:16.967Z,40.03
2019-03-22T07:15:47.607Z,40.43
2019-03-22T07:18:18.724Z,39.33
2019-03-22T07:20:49.806Z,39.10
2019-03-22T07:23:20.474Z,41.50
2019-03-22T07:25:51.678Z,48.17
2019-03-22T07:28:22.476Z,49.10
2019-03-22T07:30:53.158Z,47.17
2019-03-22T07:33:24.370Z,49.10
2019-03-22T07:35:55.096Z,44.40
2019-03-22T07:38:25.875Z,47.10
2019-03-22T07:40:56.559Z,45.77
2019-03-22T07:43:27.185Z,44.97
2019-03-22T07:45:57.898Z,41.13
2019-03-22T07:48:28.740Z,46.30
2019-03-22T07:50:59.858Z,46.00
2019-03-22T07:53:30.814Z,45.97
2019-03-22T07:56:01.625Z,44.13
2019-03-22T07:58:32.865Z,47.27
2019-03-22T08:01:03.712Z,45.07
2019-03-22T08:03:34.427Z,45.57
2019-03-22T08:07:11.165Z,44.03
2019-03-22T08:09:42.746Z,45.77
2019-03-22T08:12:13.413Z,44.73
2019-03-22T08:14:44.121Z,42.80
2019-03-22T08:17:15.116Z,41.30
2019-03-22T08:19:46.130Z,41.53
2019-03-22T08:22:16.792Z,38.47
2019-03-22T08:24:47.519Z,36.90
2019-03-22T08:27:18.414Z,37.90
2019-03-22T08:29:49.208Z,38.77
2019-03-22T08:32:19.879Z,38.10
2019-03-22T08:34:50.693Z,37.00
2019-03-22T08:37:23.599Z,37.47
2019-03-22T08:39:55.909Z,34.80
2019-03-22T08:42:27.189Z,35.03
2019-03-22T08:44:59.014Z,34.37
2019-03-22T08:47:34.315Z,33.33
2019-03-22T08:50:02.590Z,30.87
2019-03-22T08:52:33.633Z,33.17
2019-03-22T08:55:04.361Z,33.80
2019-03-22T08:57:35.208Z,34.27
2019-03-22T09:00:07.685Z,33.70
2019-03-22T09:02:38.725Z,38.07
2019-03-22T09:05:09.933Z,36.80
2019-03-22T09:07:41.081Z,34.17
2019-03-22T09:10:12.605Z,35.50
2019-03-22T09:12:43.300Z,35.63
2019-03-22T09:15:14.085Z,38.47
2019-03-22T09:17:44.751Z,39.37
2019-03-22T09:20:16.059Z,41.17
2019-03-22T09:22:47.027Z,43.23
2019-03-22T09:25:17.887Z,38.77
2019-03-22T09:27:48.850Z,40.30
2019-03-22T09:30:19.635Z,37.20
2019-03-22T09:32:50.345Z,39.17
2019-03-22T09:35:21.830Z,35.67
2019-03-22T09:37:52.497Z,34.97
2019-03-22T09:40:23.199Z,33.77
2019-03-22T09:42:53.911Z,33.47
2019-03-22T09:45:24.634Z,32.87
2019-03-22T09:47:55.837Z,31.67
2019-03-22T09:50:26.500Z,29.80
2019-03-22T09:52:57.238Z,29.20
2019-03-22T09:55:27.970Z,30.47
2019-03-22T09:57:58.766Z,31.53
2019-03-22T10:00:32.394Z,33.80
2019-03-22T10:03:03.953Z,33.40
2019-03-22T10:05:34.970Z,29.60
2019-03-22T10:08:05.713Z,29.20
2019-03-22T10:10:36.801Z,31.13
2019-03-22T10:13:07.478Z,31.60
2019-03-22T10:15:38.109Z,30.90
2019-03-22T10:18:09.085Z,34.33
2019-03-22T10:20:39.795Z,32.60
2019-03-22T10:23:10.452Z,32.63
2019-03-22T10:25:41.560Z,33.43
2019-03-22T10:28:12.373Z,35.57
2019-03-22T10:30:43.006Z,35.63
2019-03-22T10:33:22.719Z,34.47
2019-03-22T10:35:46.070Z,36.90
2019-03-22T10:38:30.715Z,36.47
2019-03-22T10:40:49.459Z,33.80
2019-03-22T10:43:20.144Z,34.63
2019-03-22T10:45:50.885Z,35.83
2019-03-22T10:48:21.936Z,35.70
2019-03-22T10:50:52.622Z,37.33
2019-03-22T10:53:23.353Z,36.30
2019-03-22T10:55:54.309Z,39.60
2019-03-22T10:58:25.302Z,38.63
2019-03-22T11:00:56.605Z,39.63
2019-03-22T11:03:27.977Z,40.37
2019-03-22T11:05:58.746Z,40.63
2019-03-22T11:08:29.461Z,42.10
2019-03-22T11:11:00.091Z,43.20
2019-03-22T11:13:31.080Z,43.63
2019-03-22T11:16:01.799Z,43.60
2019-03-22T11:18:37.374Z,44.40
2019-03-22T11:21:05.831Z,43.27
2019-03-22T11:23:36.523Z,44.60
2019-03-22T11:26:07.167Z,47.10
2019-03-22T11:28:37.980Z,47.93
2019-03-22T11:31:08.711Z,48.83
2019-03-22T11:33:39.457Z,48.50
2019-03-22T11:36:10.140Z,48.33
2019-03-22T11:38:41.101Z,48.40
2019-03-22T11:41:11.805Z,49.77
2019-03-22T11:43:42.612Z,46.87
2019-03-22T11:46:13.291Z,48.77
2019-03-22T11:48:44.335Z,48.10
2019-03-22T11:51:15.049Z,47.67
2019-03-22T11:53:46.113Z,48.47
2019-03-22T11:56:16.872Z,51.80
2019-03-22T11:58:47.651Z,51.67
2019-03-22T12:01:20.423Z,55.30
2019-03-22T12:03:50.664Z,53.23
2019-03-22T12:06:21.354Z,56.97
2019-03-22T12:08:52.056Z,56.10
2019-03-22T12:11:23.027Z,55.00
2019-03-22T12:13:53.760Z,56.40
2019-03-22T12:16:24.447Z,52.20
2019-03-22T12:18:55.176Z,54.10
2019-03-22T12:21:27.521Z,52.40
2019-03-22T12:23:58.219Z,50.40
2019-03-22T12:26:28.937Z,53.17
2019-03-22T12:28:59.611Z,52.00
2019-03-22T12:31:30.680Z,53.10
2019-03-22T12:34:01.357Z,55.67
2019-03-22T12:36:32.076Z,54.70
2019-03-22T12:39:03.585Z,52.70
2019-03-22T12:41:34.320Z,52.30
2019-03-22T12:44:16.151Z,54.60
2019-03-22T12:46:49.908Z,53.90
2019-03-22T12:49:20.578Z,56.60
2019-03-22T12:51:51.262Z,55.43
2019-03-22T12:54:21.928Z,57.60
2019-03-22T12:56:52.731Z,52.80
2019-03-22T12:59:23.380Z,55.97
2019-03-22T13:01:54.463Z,53.93
2019-03-22T13:04:25.403Z,55.90
2019-03-22T13:06:56.054Z,54.40
2019-03-22T13:09:27.010Z,56.30
2019-03-22T13:11:57.911Z,60.57
2019-03-22T13:14:29.313Z,58.90
2019-03-22T13:16:59.967Z,53.40
2019-03-22T13:19:30.666Z,56.20
2019-03-22T13:22:01.360Z,53.57
2019-03-22T13:24:32.320Z,52.50
2019-03-22T13:27:02.991Z,54.90
2019-03-22T13:29:33.831Z,55.63
2019-03-22T13:32:04.801Z,50.57
2019-03-22T13:34:35.512Z,53.87
2019-03-22T13:37:06.157Z,49.97
2019-03-22T13:39:36.882Z,46.90
2019-03-22T13:42:07.574Z,48.63
2019-03-22T13:44:38.327Z,46.33
2019-03-22T13:47:09.049Z,47.93
2019-03-22T13:49:39.743Z,45.90
2019-03-22T13:52:10.509Z,44.10
2019-03-22T13:54:41.363Z,48.83
2019-03-22T13:57:12.434Z,46.03
2019-03-22T13:59:43.180Z,45.03
2019-03-22T14:02:13.819Z,52.93
2019-03-22T14:04:44.507Z,52.50
2019-03-22T14:07:15.169Z,51.23
2019-03-22T14:09:45.857Z,52.97
2019-03-22T14:12:16.522Z,49.43
2019-03-22T14:14:47.185Z,48.13
2019-03-22T14:17:17.941Z,49.73
2019-03-22T14:19:48.634Z,50.10
2019-03-22T14:22:19.362Z,48.03
2019-03-22T14:24:50.075Z,48.53
2019-03-22T14:27:20.812Z,48.97
2019-03-22T14:29:51.547Z,49.93
2019-03-22T14:32:22.462Z,51.20
2019-03-22T14:34:53.100Z,46.80
2019-03-22T14:37:23.803Z,48.77
2019-03-22T14:39:54.493Z,49.17
2019-03-22T14:42:25.226Z,51.10
2019-03-22T14:44:56.695Z,47.37
2019-03-22T14:47:27.390Z,49.50
2019-03-22T14:49:58.094Z,53.90
2019-03-22T14:52:28.770Z,49.37
2019-03-22T14:54:59.445Z,49.80
2019-03-22T14:57:30.396Z,49.67
2019-03-22T15:00:01.120Z,55.20
2019-03-22T15:02:31.795Z,46.83
2019-03-22T15:05:02.482Z,46.40
2019-03-22T15:07:33.148Z,49.57
2019-03-22T15:10:04.701Z,51.87
2019-03-22T15:12:35.432Z,52.90
2019-03-22T15:15:33.113Z,52.80
2019-03-22T15:18:25.592Z,52.87
2019-03-22T15:21:27.646Z,49.90
2019-03-22T15:24:27.940Z,49.17
2019-03-22T15:27:16.548Z,47.33
2019-03-22T15:30:05.294Z,50.20
2019-03-22T15:32:53.969Z,48.80
2019-03-22T15:35:42.738Z,48.67
2019-03-22T15:38:32.136Z,52.83
2019-03-22T15:41:03.049Z,51.30
2019-03-22T15:43:33.737Z,51.00
2019-03-22T15:46:04.436Z,50.27
2019-03-22T15:48:35.425Z,52.37
2019-03-22T15:51:06.380Z,49.47
2019-03-22T15:53:37.435Z,54.97
2019-03-22T15:56:08.133Z,58.97
2019-03-22T15:58:39.928Z,54.33
2019-03-22T16:01:10.645Z,54.00
2019-03-22T16:03:44.406Z,60.93
2019-03-22T16:06:14.168Z,52.23
2019-03-22T16:08:44.939Z,50.17
2019-03-22T16:11:15.624Z,51.80
2019-03-22T16:13:46.903Z,50.80
2019-03-22T16:16:17.680Z,55.73
2019-03-22T16:18:48.398Z,53.13
2019-03-22T16:21:19.483Z,53.43
2019-03-22T16:23:50.140Z,53.57
2019-03-22T16:26:20.827Z,52.80
2019-03-22T16:28:51.752Z,46.17
2019-03-22T16:31:22.456Z,53.50
2019-03-22T16:33:54.736Z,45.77
2019-03-22T16:36:25.813Z,52.00
2019-03-22T16:38:56.899Z,53.30
2019-03-22T16:41:27.663Z,51.13
2019-03-22T16:43:58.319Z,51.63
2019-03-22T16:46:28.990Z,54.50
2019-03-22T16:49:00.789Z,54.80
2019-03-22T16:51:31.544Z,52.63
2019-03-22T16:54:02.568Z,49.80
2019-03-22T16:56:33.967Z,51.60
2019-03-22T16:59:04.656Z,51.90
2019-03-22T17:01:35.323Z,48.90
2019-03-22T17:04:06.632Z,50.33
2019-03-22T17:06:37.999Z,52.00
2019-03-22T17:09:09.575Z,50.00
2019-03-22T17:11:40.270Z,51.00
2019-03-22T17:14:10.924Z,51.40
2019-03-22T17:16:41.599Z,49.13
2019-03-22T17:19:12.334Z,50.30
2019-03-22T17:21:43.132Z,51.97
2019-03-22T17:24:14.004Z,51.10
2019-03-22T17:26:45.610Z,51.90
2019-03-22T17:29:16.385Z,52.97
2019-03-22T17:31:47.374Z,53.53
2019-03-22T17:34:18.189Z,51.10
2019-03-22T17:36:49.346Z,50.60
2019-03-22T17:39:20.411Z,50.67
2019-03-22T17:41:51.141Z,48.30
2019-03-22T17:44:21.911Z,48.07
2019-03-22T17:46:52.565Z,48.20
2019-03-22T17:49:23.249Z,48.27
2019-03-22T17:51:53.910Z,52.17
2019-03-22T17:54:24.932Z,51.10
2019-03-22T17:56:55.674Z,51.43
2019-03-22T17:59:26.412Z,53.83
2019-03-22T18:01:57.142Z,49.07
2019-03-22T18:04:28.107Z,54.73
2019-03-22T18:06:58.789Z,57.70
2019-03-22T18:09:29.529Z,60.67
2019-03-22T18:12:00.776Z,57.33
2019-03-22T18:14:31.631Z,54.57
2019-03-22T18:17:02.388Z,57.43
2019-03-22T18:19:33.493Z,61.37
2019-03-22T18:22:04.432Z,63.17
2019-03-22T18:24:35.119Z,64.03
2019-03-22T18:27:06.204Z,65.03
2019-03-22T18:29:36.913Z,62.80
2019-03-22T18:32:08.849Z,62.70
2019-03-22T18:34:39.537Z,64.37
2019-03-22T18:37:10.272Z,64.23
2019-03-22T18:39:41.065Z,64.70
2019-03-22T18:42:12.117Z,65.07
2019-03-22T18:44:42.847Z,62.73
2019-03-22T18:47:13.586Z,60.17
2019-03-22T18:49:44.354Z,62.30
2019-03-22T18:52:16.133Z,63.67
2019-03-22T18:54:47.069Z,61.77
2019-03-22T18:57:18.244Z,63.70
2019-03-22T18:59:49.397Z,62.20
2019-03-22T19:02:20.062Z,59.90
2019-03-22T19:04:50.761Z,61.43
2019-03-22T19:07:21.495Z,58.20
2019-03-22T19:09:52.383Z,61.20
2019-03-22T19:12:23.954Z,58.43
2019-03-22T19:14:55.172Z,63.93
2019-03-22T19:17:26.326Z,65.67
2019-03-22T19:19:57.207Z,64.73
2019-03-22T19:22:27.859Z,61.90
2019-03-22T19:24:58.584Z,65.53
2019-03-22T19:27:29.534Z,66.20
2019-03-22T19:30:00.387Z,65.57
2019-03-22T19:32:31.065Z,68.53
2019-03-22T19:35:01.912Z,63.37
2019-03-22T19:37:32.560Z,67.30
2019-03-22T19:40:03.408Z,68.60
2019-03-22T19:42:34.480Z,69.83
2019-03-22T19:45:06.733Z,67.70
2019-03-22T19:47:37.684Z,71.63
2019-03-22T19:50:08.869Z,67.80
2019-03-22T19:52:39.839Z,71.77
2019-03-22T19:55:11.645Z,71.70
2019-03-22T19:57:42.977Z,68.53
2019-03-22T20:00:14.037Z,73.23
2019-03-22T20:02:44.765Z,73.23
2019-03-22T20:05:29.316Z,75.67
2019-03-22T20:08:01.218Z,76.23
2019-03-22T20:10:31.959Z,77.50
2019-03-22T20:13:02.768Z,76.13
2019-03-22T20:15:33.781Z,75.53
2019-03-22T20:18:04.697Z,75.67
2019-03-22T20:20:36.300Z,73.90
2019-03-22T20:23:07.231Z,73.93
2019-03-22T20:25:38.028Z,76.10
2019-03-22T20:28:08.871Z,77.90
2019-03-22T20:30:39.549Z,80.67
2019-03-22T20:33:10.219Z,75.13
2019-03-22T20:35:41.623Z,75.33
2019-03-22T20:38:12.322Z,73.80
2019-03-22T20:40:42.975Z,73.87
2019-03-22T20:43:13.743Z,74.50
2019-03-22T20:45:44.752Z,77.33
2019-03-22T20:48:15.456Z,79.23
2019-03-22T20:50:46.202Z,77.70
2019-03-22T20:53:17.140Z,77.60
2019-03-22T20:55:47.831Z,76.67
2019-03-22T20:58:18.848Z,73.77
2019-03-22T21:00:49.741Z,75.57
2019-03-22T21:03:20.445Z,73.70
2019-03-22T21:05:51.306Z,71.60
2019-03-22T21:08:22.598Z,75.40
2019-03-22T21:10:53.329Z,74.70
2019-03-22T21:13:23.965Z,79.67
2019-03-22T21:15:54.617Z,73.10
2019-03-22T21:18:25.430Z,73.53
2019-03-22T21:20:56.372Z,71.17
2019-03-22T21:23:35.909Z,72.20
2019-03-22T21:26:00.336Z,70.83
2019-03-22T21:28:31.182Z,75.00
2019-03-22T21:31:02.813Z,71.83
2019-03-22T21:33:33.765Z,77.07
2019-03-22T21:36:05.021Z,74.90
2019-03-22T21:38:35.721Z,83.20
2019-03-22T21:41:06.966Z,73.87
2019-03-22T21:43:38.358Z,79.93
2019-03-22T21:46:09.003Z,71.80
2019-03-22T21:48:39.738Z,74.27
2019-03-22T21:51:10.408Z,69.77
2019-03-22T21:53:41.139Z,78.70
2019-03-22T21:56:11.852Z,76.33
2019-03-22T21:58:42.823Z,74.23
2019-03-22T22:01:13.750Z,82.93
2019-03-22T22:03:44.730Z,77.90
2019-03-22T22:06:15.671Z,74.13
2019-03-22T22:08:46.420Z,70.37
2019-03-22T22:11:17.613Z,73.50
2019-03-22T22:13:48.337Z,67.47
2019-03-22T22:16:19.348Z,78.23
2019-03-22T22:18:50.045Z,73.27
2019-03-22T22:21:21.136Z,73.10
2019-03-22T22:23:52.462Z,75.73
2019-03-22T22:26:23.152Z,74.00
2019-03-22T22:28:54.239Z,78.80
2019-03-22T22:31:25.195Z,73.50
2019-03-22T22:33:55.851Z,77.23
2019-03-22T22:36:26.525Z,75.60
2019-03-22T22:38:57.559Z,72.77
2019-03-22T22:41:28.290Z,76.33
2019-03-22T22:43:59.592Z,74.60
2019-03-22T22:46:30.595Z,71.03
2019-03-22T22:49:01.547Z,71.80
2019-03-22T22:51:32.646Z,74.80
2019-03-22T22:54:03.937Z,72.53
2019-03-22T22:56:35.014Z,69.13
2019-03-22T22:59:05.791Z,71.50
2019-03-22T23:01:36.685Z,68.80
2019-03-22T23:04:07.359Z,67.23
2019-03-22T23:06:38.124Z,67.97
2019-03-22T23:09:09.402Z,71.60
2019-03-22T23:11:40.640Z,70.13
2019-03-22T23:14:11.441Z,73.50
2019-03-22T23:16:42.134Z,69.90
2019-03-22T23:19:13.108Z,72.63
2019-03-22T23:21:43.765Z,72.00
2019-03-22T23:24:14.398Z,72.87
2019-03-22T23:26:45.398Z,71.57
2019-03-22T23:29:16.051Z,72.53
2019-03-22T23:31:49.124Z,71.70
2019-03-22T23:34:19.176Z,73.60
2019-03-22T23:36:49.980Z,72.33
2019-03-22T23:39:20.641Z,70.93
2019-03-22T23:41:51.388Z,79.03
2019-03-22T23:44:22.405Z,72.50
2019-03-22T23:46:53.174Z,74.13
2019-03-22T23:49:24.135Z,76.50
2019-03-22T23:51:55.189Z,74.10
2019-03-22T23:54:25.852Z,69.60
2019-03-22T23:56:56.525Z,67.53
2019-03-22T23:59:27.507Z,66.50
